Time;durP1;ratioP1;P1;durP2;ratioP2;P2;SDS_P1;SDS_P2;PMS_P1;PMS_P2;Temp;Humidity;BMP_temperature;BMP_pressure;BME280_temperature;BME280_humidity;BME280_pressure;Samples;Min_cycle;Max_cycle;Signal;HPM_P1;HPM_P2
2024/03/12 00:01:09;;;;;;;17.20;12.00;;;;;;;7.15;85.88;99617.05;130504;1262;107737;-84
2024/03/12 00:04:22;;;;;;;17.20;12.20;;;;;;;7.13;86.08;99615.04;130626;1262;108418;-82
2024/03/12 00:07:30;;;;;;;18.90;13.30;;;;;;;7.13;86.27;99617.49;130624;1258;108675;-84
2024/03/12 00:10:36;;;;;;;20.90;14.20;;;;;;;7.15;86.13;99618.02;130621;1262;108792;-81
2024/03/12 00:13:42;;;;;;;21.30;13.60;;;;;;;7.17;86.09;99620.27;130614;1261;107972;-82
2024/03/12 00:16:47;;;;;;;21.30;14.60;;;;;;;7.17;86.07;99618.34;130666;1262;106849;-82
2024/03/12 00:19:53;;;;;;;26.20;18.00;;;;;;;7.15;86.21;99617.45;130613;1260;106255;-82
2024/03/12 00:22:59;;;;;;;18.70;12.40;;;;;;;7.11;86.21;99617.30;130649;1262;108706;-82
2024/03/12 00:26:05;;;;;;;16.90;10.90;;;;;;;7.10;86.20;99614.54;130615;1262;106535;-82
2024/03/12 00:29:11;;;;;;;19.90;13.00;;;;;;;7.11;86.38;99612.34;130670;1262;107530;-82
2024/03/12 00:32:18;;;;;;;18.90;13.00;;;;;;;7.14;86.50;99614.04;130634;1262;107620;-82
2024/03/12 00:35:25;;;;;;;17.80;13.00;;;;;;;7.17;86.44;99613.19;130665;1260;106690;-82
2024/03/12 00:38:31;;;;;;;18.70;13.00;;;;;;;7.15;86.44;99611.44;130683;1259;108724;-82
2024/03/12 00:41:37;;;;;;;18.80;13.30;;;;;;;7.14;86.27;99616.45;130632;1262;107691;-82
2024/03/12 00:44:42;;;;;;;19.10;12.00;;;;;;;7.14;86.43;99612.79;130541;1260;107769;-81
2024/03/12 00:47:48;;;;;;;14.20;9.60;;;;;;;7.12;86.44;99609.81;130612;1257;106970;-82
2024/03/12 00:50:55;;;;;;;18.00;12.20;;;;;;;7.11;86.36;99606.74;130631;1262;106795;-85
2024/03/12 00:54:04;;;;;;;16.80;11.60;;;;;;;7.13;86.61;99609.36;130613;1262;107530;-81
2024/03/12 00:57:09;;;;;;;20.60;12.60;;;;;;;7.14;86.37;99606.08;130601;1258;108703;-81
2024/03/12 01:00:18;;;;;;;20.10;13.00;;;;;;;7.16;86.21;99607.14;130596;1262;107372;-81
2024/03/12 01:03:26;;;;;;;18.70;12.50;;;;;;;7.14;86.40;99606.58;130568;1262;107581;-81
2024/03/12 01:06:31;;;;;;;16.40;11.00;;;;;;;7.12;86.41;99606.24;130582;1259;108743;-81
2024/03/12 01:09:40;;;;;;;15.30;10.50;;;;;;;7.12;86.54;99608.58;130615;1262;106413;-81
2024/03/12 01:12:46;;;;;;;18.50;11.60;;;;;;;7.12;86.48;99608.36;130567;1262;106587;-81
2024/03/12 01:15:53;;;;;;;17.50;12.20;;;;;;;7.15;86.64;99612.50;130578;1262;106516;-81
2024/03/12 01:18:59;;;;;;;17.10;12.30;;;;;;;7.17;86.28;99612.80;130729;1262;106475;-81
2024/03/12 01:22:05;;;;;;;16.70;12.30;;;;;;;7.21;86.63;99608.75;130685;1260;106990;-81
2024/03/12 01:25:11;;;;;;;16.50;11.50;;;;;;;7.22;86.21;99608.68;130605;1258;107729;-81
2024/03/12 01:28:17;;;;;;;18.80;12.70;;;;;;;7.20;86.14;99606.95;130514;1262;108716;-80
2024/03/12 01:31:23;;;;;;;16.00;11.00;;;;;;;7.15;86.58;99604.55;130657;1260;108679;-80
2024/03/12 01:34:28;;;;;;;16.10;9.50;;;;;;;7.13;86.46;99605.60;130700;1262;108021;-80
2024/03/12 01:37:34;;;;;;;18.60;11.90;;;;;;;7.14;86.75;99602.85;130479;1262;108653;-80
2024/03/12 01:40:41;;;;;;;17.10;11.60;;;;;;;7.16;86.64;99599.85;130710;1260;108672;-81
2024/03/12 01:43:59;;;;;;;16.80;11.70;;;;;;;7.19;86.72;99603.61;130718;1259;107422;-81
2024/03/12 01:47:05;;;;;;;18.70;12.40;;;;;;;7.20;86.72;99605.11;130687;1260;106519;-80
2024/03/12 01:50:11;;;;;;;17.60;12.50;;;;;;;7.21;86.63;99605.21;130661;1262;107148;-80
2024/03/12 01:53:17;;;;;;;16.90;11.40;;;;;;;7.21;86.63;99604.69;130627;1262;106579;-80
2024/03/12 01:56:24;;;;;;;15.40;10.30;;;;;;;7.18;86.53;99608.30;130626;1261;106507;-80
2024/03/12 01:59:29;;;;;;;17.00;11.30;;;;;;;7.19;86.41;99609.23;130676;1262;107932;-81
2024/03/12 02:02:35;;;;;;;17.80;11.70;;;;;;;7.20;86.60;99604.61;130628;1263;107494;-80
2024/03/12 02:05:41;;;;;;;18.30;12.00;;;;;;;7.24;86.50;99606.66;130638;1261;107627;-80
2024/03/12 02:08:47;;;;;;;18.00;12.20;;;;;;;7.25;86.86;99605.36;130631;1262;107706;-80
2024/03/12 02:11:52;;;;;;;19.30;12.70;;;;;;;7.24;86.69;99604.40;130680;1262;108693;-81
2024/03/12 02:15:02;;;;;;;17.10;11.00;;;;;;;7.23;86.46;99600.44;130635;1259;108681;-81
2024/03/12 02:18:08;;;;;;;16.80;10.60;;;;;;;7.23;86.36;99603.61;130634;1262;107194;-80
2024/03/12 02:21:14;;;;;;;17.60;12.00;;;;;;;7.23;86.69;99602.66;130665;1262;108854;-81
2024/03/12 02:24:19;;;;;;;20.40;12.80;;;;;;;7.25;86.64;99600.52;130667;1261;108603;-81
2024/03/12 02:27:25;;;;;;;20.80;12.60;;;;;;;7.27;86.79;99601.92;130645;1261;107931;-81
2024/03/12 02:30:30;;;;;;;19.90;12.70;;;;;;;7.30;86.57;99598.48;130639;1259;108939;-80
2024/03/12 02:33:36;;;;;;;19.80;13.50;;;;;;;7.30;86.69;99593.71;130607;1261;106955;-80
2024/03/12 02:36:42;;;;;;;20.80;13.40;;;;;;;7.27;86.62;99587.95;130668;1261;107480;-81
2024/03/12 02:39:47;;;;;;;21.60;12.60;;;;;;;7.25;86.83;99588.04;130681;1262;106598;-80
2024/03/12 02:42:53;;;;;;;17.00;10.40;;;;;;;7.20;86.82;99587.96;130569;1262;106588;-81
2024/03/12 02:45:58;;;;;;;20.70;12.40;;;;;;;7.20;86.85;99585.98;130579;1260;108346;-81
2024/03/12 02:49:04;;;;;;;20.50;13.30;;;;;;;7.22;87.01;99585.86;130565;1271;106833;-81
2024/03/12 02:52:11;;;;;;;19.50;13.00;;;;;;;7.23;86.91;99585.21;130594;1262;107475;-81
2024/03/12 02:55:19;;;;;;;20.60;12.70;;;;;;;7.24;87.03;99584.39;130691;1261;106665;-81
2024/03/12 02:58:25;;;;;;;20.30;14.00;;;;;;;7.24;86.74;99585.29;130635;1260;106566;-81
2024/03/12 03:01:31;;;;;;;20.20;12.60;;;;;;;7.23;86.84;99584.31;130640;1261;106923;-80
2024/03/12 03:04:39;;;;;;;18.90;10.50;;;;;;;7.22;86.98;99585.33;130601;1262;107238;-80
2024/03/12 03:07:48;;;;;;;22.90;13.80;;;;;;;7.22;87.14;99584.64;130592;1262;106337;-80
2024/03/12 03:10:54;;;;;;;21.80;13.20;;;;;;;7.23;86.90;99583.45;130646;1262;107536;-81
2024/03/12 03:14:00;;;;;;;21.50;13.00;;;;;;;7.27;87.22;99584.13;130595;1259;108474;-81
2024/03/12 03:17:07;;;;;;;21.50;14.20;;;;;;;7.28;87.06;99581.15;130619;1261;108637;-80
2024/03/12 03:20:14;;;;;;;27.80;18.00;;;;;;;7.26;86.96;99577.85;130811;1260;108666;-80
2024/03/12 03:23:19;;;;;;;22.50;13.70;;;;;;;7.24;87.09;99577.43;130732;1263;108704;-80
2024/03/12 03:26:25;;;;;;;20.50;12.00;;;;;;;7.24;87.26;99577.20;130718;1260;106970;-80
2024/03/12 03:29:32;;;;;;;21.30;14.10;;;;;;;7.24;87.08;99573.45;130714;1256;109364;-81
2024/03/12 03:32:39;;;;;;;23.40;14.50;;;;;;;7.27;87.29;99578.79;130970;1262;108999;-81
2024/03/12 03:35:45;;;;;;;21.30;14.20;;;;;;;7.28;87.47;99574.77;130861;1262;107684;-81
2024/03/12 03:38:50;;;;;;;22.80;13.80;;;;;;;7.29;87.12;99579.14;130652;1259;106359;-79
2024/03/12 03:41:56;;;;;;;22.60;15.00;;;;;;;7.28;87.19;99579.90;130471;1262;106682;-79
2024/03/12 03:45:01;;;;;;;23.80;12.70;;;;;;;7.26;87.19;99579.23;130314;1263;106567;-81
2024/03/12 03:48:08;;;;;;;19.40;12.10;;;;;;;7.24;87.11;99578.23;130799;1259;108439;-80
2024/03/12 03:51:16;;;;;;;30.50;18.60;;;;;;;7.25;87.14;99576.18;130943;1262;107473;-80
2024/03/12 03:54:21;;;;;;;26.60;16.90;;;;;;;7.26;87.34;99572.64;130981;1259;106735;-80
2024/03/12 03:57:27;;;;;;;28.10;17.10;;;;;;;7.24;87.40;99568.44;130448;1265;106985;-80
2024/03/12 04:00:35;;;;;;;32.50;18.70;;;;;;;7.25;87.33;99567.52;130278;1262;108786;-80
2024/03/12 04:03:41;;;;;;;35.60;20.30;;;;;;;7.24;87.22;99571.10;130509;1262;106506;-80
2024/03/12 04:06:47;;;;;;;34.40;19.20;;;;;;;7.23;87.52;99573.66;130603;1258;107638;-80
2024/03/12 04:09:54;;;;;;;29.30;16.70;;;;;;;7.21;87.34;99573.48;130428;1260;107141;-80
2024/03/12 04:13:00;;;;;;;30.10;17.60;;;;;;;7.20;87.68;99575.93;130459;1261;107025;-79
2024/03/12 04:16:06;;;;;;;26.90;17.50;;;;;;;7.21;87.47;99575.80;130691;1262;107854;-79
2024/03/12 04:19:13;;;;;;;29.10;18.70;;;;;;;7.24;87.40;99572.55;130400;1262;107642;-80
2024/03/12 04:22:19;;;;;;;30.70;19.60;;;;;;;7.25;87.37;99575.44;130417;1262;108349;-81
2024/03/12 04:25:24;;;;;;;27.60;17.40;;;;;;;7.24;87.42;99574.64;130426;1263;107287;-80
2024/03/12 04:28:30;;;;;;;26.70;16.40;;;;;;;7.20;87.39;99576.63;130630;1262;106426;-79
2024/03/12 04:31:38;;;;;;;26.20;16.20;;;;;;;7.17;87.65;99575.29;130382;1258;107911;-80
2024/03/12 04:34:44;;;;;;;34.50;20.10;;;;;;;7.18;87.74;99583.22;130611;1262;107317;-80
2024/03/12 04:37:50;;;;;;;36.00;22.10;;;;;;;7.18;87.53;99578.08;130448;1262;107779;-80
2024/03/12 04:40:56;;;;;;;41.60;24.10;;;;;;;7.20;88.01;99582.48;130721;1262;106503;-79
2024/03/12 04:44:01;;;;;;;40.70;24.10;;;;;;;7.20;87.78;99583.69;130439;1262;107605;-80
2024/03/12 04:47:07;;;;;;;33.00;21.30;;;;;;;7.19;87.77;99587.55;130691;1259;107732;-80
2024/03/12 04:50:15;;;;;;;32.20;18.20;;;;;;;7.17;87.82;99589.15;130459;1262;108694;-79
2024/03/12 04:53:22;;;;;;;29.20;16.60;;;;;;;7.15;87.91;99595.55;130447;1273;107583;-79
2024/03/12 04:56:28;;;;;;;32.90;20.40;;;;;;;7.14;87.64;99594.39;130467;1263;108755;-80
2024/03/12 04:59:34;;;;;;;37.90;23.10;;;;;;;7.15;87.90;99597.82;130429;1262;107708;-79
2024/03/12 05:02:39;;;;;;;39.90;23.30;;;;;;;7.16;88.03;99599.51;130433;1260;108457;-80
2024/03/12 05:05:45;;;;;;;39.00;22.30;;;;;;;7.16;87.87;99603.39;130382;1263;107555;-79
2024/03/12 05:08:50;;;;;;;38.70;23.50;;;;;;;7.14;88.07;99604.27;130393;1263;106629;-80
2024/03/12 05:11:56;;;;;;;38.10;21.40;;;;;;;7.13;88.12;99609.55;130394;1262;107822;-79
2024/03/12 05:15:02;;;;;;;39.00;19.40;;;;;;;7.10;88.09;99610.66;130371;1262;107587;-80
2024/03/12 05:18:08;;;;;;;39.00;21.60;;;;;;;7.14;88.22;99615.30;130392;1262;108658;-80
2024/03/12 05:21:14;;;;;;;37.00;22.80;;;;;;;7.16;88.43;99612.98;130446;1269;108452;-79
2024/03/12 05:24:19;;;;;;;37.60;21.90;;;;;;;7.18;88.33;99614.69;130363;1262;108141;-80
2024/03/12 05:27:33;;;;;;;37.30;22.70;;;;;;;7.18;88.07;99615.36;130648;1259;107456;-80
2024/03/12 05:30:40;;;;;;;38.20;22.10;;;;;;;7.18;87.95;99618.02;130440;1262;106476;-80
2024/03/12 05:33:46;;;;;;;38.80;20.10;;;;;;;7.15;88.29;99617.84;130405;1262;107060;-79
2024/03/12 05:37:00;;;;;;;33.30;17.90;;;;;;;7.14;88.23;99618.31;130391;1262;106983;-79
2024/03/12 05:40:16;;;;;;;34.70;21.50;;;;;;;7.15;88.60;99618.88;130621;1262;106910;-80
2024/03/12 05:50:09;;;;;;;38.90;24.10;;;;;;;7.21;88.55;99618.34;130804;1271;107343;-83
2024/03/12 05:53:15;;;;;;;36.50;19.80;;;;;;;7.19;88.44;99620.09;131062;1262;108777;-83
2024/03/12 05:56:21;;;;;;;34.60;18.40;;;;;;;7.17;88.67;99619.41;131034;1262;106525;-83
2024/03/12 05:59:26;;;;;;;43.90;22.60;;;;;;;7.16;88.73;99620.70;131090;1258;106565;-83
2024/03/12 06:02:33;;;;;;;40.30;23.00;;;;;;;7.19;88.73;99619.86;131103;1262;107795;-81
2024/03/12 06:05:38;;;;;;;38.40;22.70;;;;;;;7.23;88.70;99622.34;130830;1262;108632;-83
2024/03/12 06:08:44;;;;;;;40.30;21.40;;;;;;;7.25;88.62;99621.59;130533;1262;107572;-83
2024/03/12 06:11:50;;;;;;;38.50;23.70;;;;;;;7.26;88.61;99620.48;130627;1263;106248;-83
2024/03/12 06:14:56;;;;;;;38.20;19.60;;;;;;;7.26;88.62;99625.27;130500;1262;107955;-83
2024/03/12 06:18:02;;;;;;;35.90;19.20;;;;;;;7.24;89.03;99626.15;130486;1263;107511;-83
2024/03/12 06:21:08;;;;;;;43.40;24.00;;;;;;;7.23;89.01;99627.70;130584;1262;107191;-83
2024/03/12 06:24:14;;;;;;;39.80;23.10;;;;;;;7.25;88.96;99631.86;130540;1262;108495;-83
2024/03/12 06:27:19;;;;;;;42.70;24.40;;;;;;;7.27;89.10;99634.50;130535;1262;108014;-83
2024/03/12 06:30:25;;;;;;;43.00;23.10;;;;;;;7.29;89.16;99635.17;130498;1268;107402;-83
2024/03/12 06:33:31;;;;;;;39.70;23.30;;;;;;;7.30;88.91;99638.36;130473;1262;106289;-83
2024/03/12 06:36:37;;;;;;;39.10;21.40;;;;;;;7.27;89.11;99638.21;130455;1261;108581;-83
2024/03/12 06:39:44;;;;;;;35.50;19.20;;;;;;;7.26;89.32;99643.31;130438;1262;107556;-83
2024/03/12 06:42:50;;;;;;;47.10;25.70;;;;;;;7.27;89.21;99645.52;130488;1271;108791;-83
2024/03/12 06:45:56;;;;;;;45.20;25.00;;;;;;;7.27;89.36;99644.94;130470;1263;106560;-83
2024/03/12 06:49:01;;;;;;;42.20;24.40;;;;;;;7.31;89.54;99648.27;130624;1271;108715;-83
2024/03/12 06:52:07;;;;;;;44.40;23.80;;;;;;;7.36;89.41;99648.02;130756;1262;107807;-83
2024/03/12 06:55:15;;;;;;;46.70;25.20;;;;;;;7.38;89.38;99649.19;130841;1262;108550;-83
2024/03/12 06:58:21;;;;;;;38.90;20.40;;;;;;;7.38;89.51;99647.59;130700;1262;106536;-84
2024/03/12 07:01:29;;;;;;;36.80;18.60;;;;;;;7.40;89.26;99651.45;130368;1266;107407;-81
2024/03/12 07:04:43;;;;;;;44.50;23.10;;;;;;;7.43;89.15;99652.20;130483;1263;107086;-82
2024/03/12 07:07:48;;;;;;;41.90;23.00;;;;;;;7.49;89.41;99656.81;130501;1271;108842;-82
2024/03/12 07:10:55;;;;;;;40.90;22.90;;;;;;;7.53;89.64;99655.39;130535;1262;105700;-81
2024/03/12 07:14:12;;;;;;;41.60;23.10;;;;;;;7.56;89.62;99659.17;130749;1262;109075;-82
2024/03/12 07:17:18;;;;;;;40.60;21.90;;;;;;;7.54;89.49;99659.16;130971;1263;108376;-82
2024/03/12 07:20:23;;;;;;;35.90;20.20;;;;;;;7.55;89.37;99658.90;130872;1263;107571;-82
2024/03/12 07:23:29;;;;;;;35.40;18.00;;;;;;;7.57;89.32;99660.62;130857;1262;108380;-82
2024/03/12 07:26:35;;;;;;;40.50;22.00;;;;;;;7.62;89.56;99658.92;131036;1262;108190;-82
2024/03/12 07:29:43;;;;;;;41.50;24.30;;;;;;;7.68;89.29;99663.52;130630;1263;108568;-82
2024/03/12 07:32:49;;;;;;;44.90;25.40;;;;;;;7.74;89.40;99662.94;130489;1264;107549;-82
2024/03/12 07:35:54;;;;;;;43.50;25.40;;;;;;;7.80;89.33;99662.63;130444;1258;107487;-82
2024/03/12 07:39:08;;;;;;;44.30;23.60;;;;;;;7.82;89.29;99662.09;130441;1262;107486;-82
2024/03/12 07:42:19;;;;;;;40.40;21.60;;;;;;;7.82;89.24;99663.55;130427;1263;106237;-82
2024/03/12 07:45:26;;;;;;;40.90;22.20;;;;;;;7.80;89.13;99664.42;130455;1264;107591;-82
2024/03/12 07:48:32;;;;;;;42.50;23.60;;;;;;;7.79;89.19;99669.02;130546;1263;107195;-82
2024/03/12 07:51:37;;;;;;;48.10;24.50;;;;;;;7.81;89.25;99673.05;130500;1263;108683;-82
2024/03/12 07:54:44;;;;;;;39.50;23.50;;;;;;;7.83;89.14;99669.05;130456;1263;106411;-82
2024/03/12 07:57:51;;;;;;;43.50;25.90;;;;;;;7.86;89.21;99665.94;130454;1262;108694;-82
2024/03/12 08:00:57;;;;;;;48.00;29.70;;;;;;;7.87;89.01;99668.55;130474;1263;108266;-82
2024/03/12 08:04:03;;;;;;;44.10;24.50;;;;;;;7.85;89.34;99672.95;130407;1269;108822;-82
2024/03/12 08:07:09;;;;;;;39.90;21.70;;;;;;;7.85;89.14;99669.82;130475;1263;107207;-82
2024/03/12 08:10:14;;;;;;;51.40;27.60;;;;;;;7.88;89.14;99670.97;130409;1271;106644;-82
2024/03/12 08:13:21;;;;;;;52.40;30.00;;;;;;;7.91;89.15;99667.80;130396;1263;107594;-82
2024/03/12 08:16:26;;;;;;;51.30;28.50;;;;;;;7.97;89.03;99670.75;130423;1263;108601;-82
2024/03/12 08:19:32;;;;;;;56.00;29.60;;;;;;;8.00;89.06;99672.20;130417;1262;106345;-82
2024/03/12 08:22:38;;;;;;;54.40;29.10;;;;;;;8.00;88.93;99674.00;130471;1261;106844;-82
2024/03/12 08:25:44;;;;;;;48.00;26.90;;;;;;;7.98;89.00;99675.97;130469;1261;106504;-82
2024/03/12 08:28:51;;;;;;;48.90;26.70;;;;;;;7.99;88.93;99677.02;130446;1264;107563;-82
2024/03/12 08:31:57;;;;;;;45.80;23.50;;;;;;;7.98;88.81;99675.65;130177;1264;107812;-82
2024/03/12 08:35:02;;;;;;;55.80;28.30;;;;;;;8.01;88.85;99676.60;130358;1262;108663;-82
2024/03/12 08:38:09;;;;;;;54.20;29.60;;;;;;;8.03;88.85;99682.75;130382;1273;106933;-82
2024/03/12 08:41:14;;;;;;;55.50;31.40;;;;;;;8.09;88.95;99681.69;130380;1264;108693;-82
2024/03/12 08:44:20;;;;;;;59.70;32.40;;;;;;;8.14;88.69;99686.25;130390;1260;108038;-82
2024/03/12 08:47:27;;;;;;;64.00;33.50;;;;;;;8.16;88.88;99685.34;130419;1262;108571;-82
2024/03/12 08:50:33;;;;;;;67.70;36.60;;;;;;;8.19;88.94;99686.27;130339;1271;107104;-82
2024/03/12 08:53:39;;;;;;;65.90;33.70;;;;;;;8.19;88.80;99685.10;130402;1265;107878;-82
2024/03/12 08:56:45;;;;;;;57.00;28.50;;;;;;;8.19;89.00;99684.88;130505;1264;106306;-82
2024/03/12 08:59:51;;;;;;;65.50;35.20;;;;;;;8.23;88.99;99687.89;130622;1262;108894;-82
2024/03/12 09:02:56;;;;;;;53.00;28.60;;;;;;;8.27;88.88;99688.33;130608;1269;107224;-82
2024/03/12 09:06:02;;;;;;;51.60;29.50;;;;;;;8.32;88.95;99689.10;130416;1263;108786;-82
2024/03/12 09:09:08;;;;;;;50.00;28.30;;;;;;;8.41;88.94;99689.50;130442;1263;106364;-83
2024/03/12 09:12:14;;;;;;;57.50;31.20;;;;;;;8.47;88.88;99691.00;130450;1262;106596;-83
2024/03/12 09:15:19;;;;;;;41.10;22.00;;;;;;;8.50;88.75;99691.45;130572;1260;106799;-82
2024/03/12 09:18:25;;;;;;;41.60;22.00;;;;;;;8.53;88.59;99690.48;130500;1261;107592;-83
2024/03/12 09:21:32;;;;;;;48.50;26.80;;;;;;;8.59;88.57;99689.95;130534;1270;107542;-82
2024/03/12 09:24:38;;;;;;;45.80;26.60;;;;;;;8.67;88.63;99688.90;130586;1261;108765;-82
2024/03/12 09:27:46;;;;;;;43.30;25.60;;;;;;;8.72;88.63;99689.13;130620;1261;108776;-82
2024/03/12 09:30:52;;;;;;;41.00;24.30;;;;;;;8.78;88.43;99689.54;130413;1270;236049;-82
2024/03/12 09:33:57;;;;;;;41.60;24.40;;;;;;;8.85;88.34;99693.98;130478;1262;107751;-83
2024/03/12 09:37:03;;;;;;;43.90;25.30;;;;;;;8.90;88.16;99694.19;130393;1261;108496;-82
2024/03/12 09:40:11;;;;;;;40.60;24.90;;;;;;;8.91;88.09;99697.22;130481;1262;106410;-82
2024/03/12 09:43:19;;;;;;;43.10;25.00;;;;;;;8.92;88.00;99696.98;130431;1271;108733;-82
2024/03/12 09:46:25;;;;;;;46.70;24.30;;;;;;;8.94;88.08;99697.43;130349;1258;107443;-82
2024/03/12 09:49:31;;;;;;;49.40;27.00;;;;;;;8.98;87.89;99700.29;130425;1263;107468;-82
2024/03/12 09:52:36;;;;;;;45.70;26.40;;;;;;;9.00;88.03;99701.13;130486;1262;107362;-82
2024/03/12 09:55:43;;;;;;;46.30;27.80;;;;;;;9.04;88.18;99704.45;130440;1262;106668;-82
2024/03/12 09:58:48;;;;;;;46.70;27.10;;;;;;;9.09;87.99;99704.69;130399;1257;106933;-82
2024/03/12 10:01:54;;;;;;;46.40;28.10;;;;;;;9.12;87.94;99705.04;130423;1261;107861;-82
2024/03/12 10:05:01;;;;;;;46.40;28.40;;;;;;;9.14;87.75;99706.75;130459;1259;108646;-82
2024/03/12 10:08:18;;;;;;;43.30;25.80;;;;;;;9.19;87.92;99705.44;130449;1273;105714;-83
2024/03/12 10:11:24;;;;;;;42.30;24.80;;;;;;;9.25;87.88;99709.93;130470;1271;107190;-83
2024/03/12 10:14:33;;;;;;;41.70;23.60;;;;;;;9.31;87.75;99709.11;130516;1261;106208;-82
2024/03/12 10:17:39;;;;;;;46.60;26.90;;;;;;;9.38;87.47;99707.64;130516;1260;107656;-82
2024/03/12 10:20:50;;;;;;;46.10;26.90;;;;;;;9.43;87.52;99708.73;130522;1270;108588;-82
2024/03/12 10:24:12;;;;;;;48.00;26.80;;;;;;;9.49;87.55;99707.48;130517;1261;106675;-82
2024/03/12 10:27:18;;;;;;;36.20;23.40;;;;;;;9.52;87.29;99708.06;130561;1260;107646;-82
2024/03/12 10:30:30;;;;;;;35.90;22.60;;;;;;;9.53;87.54;99710.54;130532;1267;107661;-83
2024/03/12 10:33:37;;;;;;;34.20;22.20;;;;;;;9.60;87.17;99709.18;130517;1258;108437;-83
2024/03/12 10:36:43;;;;;;;32.90;21.40;;;;;;;9.56;87.35;99708.38;130456;1264;107669;-83
2024/03/12 10:39:49;;;;;;;31.90;20.20;;;;;;;9.53;87.15;99712.05;130436;1257;107793;-82
2024/03/12 10:42:57;;;;;;;29.90;19.70;;;;;;;9.50;87.31;99712.67;130412;1257;108568;-82
2024/03/12 10:46:05;;;;;;;33.10;22.50;;;;;;;9.51;87.58;99712.64;130483;1263;107568;-82
2024/03/12 10:49:12;;;;;;;35.20;24.50;;;;;;;9.59;87.46;99711.76;130407;1258;106515;-83
2024/03/12 10:52:21;;;;;;;40.20;26.00;;;;;;;9.65;87.00;99710.28;130441;1264;108767;-82
2024/03/12 10:55:27;;;;;;;96.50;54.50;;;;;;;9.66;86.85;99709.29;130428;1264;108715;-82
2024/03/12 10:58:37;;;;;;;49.40;30.60;;;;;;;9.66;87.09;99708.23;130430;1272;108005;-83
2024/03/12 11:01:43;;;;;;;40.10;23.90;;;;;;;9.65;86.94;99708.26;130428;1273;106452;-83
2024/03/12 11:04:52;;;;;;;35.10;22.40;;;;;;;9.60;86.63;99704.88;130458;1264;108815;-82
2024/03/12 11:07:59;;;;;;;32.60;21.10;;;;;;;9.55;86.62;99706.64;130392;1261;107623;-82
2024/03/12 11:11:09;;;;;;;40.80;24.60;;;;;;;9.54;86.91;99703.35;130445;1257;105706;-82
2024/03/12 11:14:15;;;;;;;36.30;23.20;;;;;;;9.57;87.15;99705.33;130463;1258;107804;-82
2024/03/12 11:17:31;;;;;;;33.10;21.70;;;;;;;9.62;86.64;99704.64;130495;1264;106344;-82
2024/03/12 11:20:41;;;;;;;34.70;23.20;;;;;;;9.66;86.54;99702.70;130418;1264;108652;-82
2024/03/12 11:23:48;;;;;;;34.80;23.80;;;;;;;9.64;86.45;99705.85;130433;1262;108754;-83
2024/03/12 11:26:54;;;;;;;36.40;24.40;;;;;;;9.63;86.65;99704.92;130514;1258;107419;-83
2024/03/12 11:30:14;;;;;;;36.00;24.10;;;;;;;9.64;86.64;99704.83;130523;1257;107891;-82
2024/03/12 11:33:52;;;;;;;38.60;25.10;;;;;;;9.61;86.74;99707.41;130552;1260;107313;-82
2024/03/12 11:37:17;;;;;;;58.00;33.60;;;;;;;9.61;86.75;99704.58;130511;1257;107917;-83
2024/03/12 11:40:30;;;;;;;38.00;22.90;;;;;;;9.62;86.89;99705.77;130464;1260;109063;-82
2024/03/12 11:43:37;;;;;;;36.90;22.40;;;;;;;9.63;86.70;99707.02;130682;1261;106279;-82
2024/03/12 11:46:45;;;;;;;35.50;23.10;;;;;;;9.67;86.72;99706.30;130579;1263;108649;-82
2024/03/12 11:49:51;;;;;;;38.60;24.30;;;;;;;9.68;86.69;99709.01;130580;1261;107811;-82
2024/03/12 11:53:20;;;;;;;34.70;23.40;;;;;;;9.67;86.64;99707.00;130588;1260;108115;-81
2024/03/12 11:56:27;;;;;;;37.00;24.50;;;;;;;9.67;86.61;99705.27;130593;1257;107634;-84
2024/03/12 11:59:33;;;;;;;33.10;22.50;;;;;;;9.68;86.59;99704.46;130542;1260;107896;-81
2024/03/12 12:02:43;;;;;;;33.00;21.90;;;;;;;9.69;86.61;99707.89;130524;1270;106689;-81
2024/03/12 12:05:50;;;;;;;31.30;20.40;;;;;;;9.68;86.44;99704.91;130570;1257;107577;-81
2024/03/12 12:08:56;;;;;;;31.90;20.40;;;;;;;9.67;86.61;99705.10;130497;1262;107751;-81
2024/03/12 12:12:03;;;;;;;31.90;19.90;;;;;;;9.67;86.35;99708.06;130438;1258;109485;-81
2024/03/12 12:15:12;;;;;;;31.80;21.30;;;;;;;9.67;86.68;99707.55;130469;1257;107653;-81
2024/03/12 12:18:18;;;;;;;30.90;21.20;;;;;;;9.63;86.58;99708.11;130533;1263;108793;-81
2024/03/12 12:21:24;;;;;;;32.00;21.60;;;;;;;9.59;86.51;99709.10;130478;1263;106763;-82
2024/03/12 12:24:31;;;;;;;33.00;21.50;;;;;;;9.57;86.65;99707.02;130415;1262;107845;-83
2024/03/12 12:27:38;;;;;;;33.00;21.50;;;;;;;9.53;86.64;99710.58;130454;1262;107844;-83
2024/03/12 12:30:45;;;;;;;33.50;20.60;;;;;;;9.52;86.62;99707.90;130401;1262;106261;-83
2024/03/12 12:33:55;;;;;;;30.50;19.50;;;;;;;9.50;86.71;99708.36;130458;1264;106575;-82
2024/03/12 12:37:01;;;;;;;35.10;22.00;;;;;;;9.50;86.50;99711.23;130495;1261;107756;-81
2024/03/12 12:40:16;;;;;;;31.40;21.30;;;;;;;9.44;86.52;99708.16;130411;1262;107786;-81
2024/03/12 12:43:22;;;;;;;37.80;23.40;;;;;;;9.42;86.48;99709.96;130433;1262;108172;-83
2024/03/12 12:46:28;;;;;;;41.60;24.20;;;;;;;9.45;86.74;99709.77;130425;1263;108286;-84
2024/03/12 12:49:35;;;;;;;30.70;21.10;;;;;;;9.48;87.03;99710.17;130458;1264;107876;-84
2024/03/12 12:52:41;;;;;;;32.00;21.30;;;;;;;9.44;86.59;99713.30;130399;1261;107867;-83
2024/03/12 12:55:47;;;;;;;32.50;20.20;;;;;;;9.38;86.45;99712.50;130434;1263;108535;-83
2024/03/12 12:58:53;;;;;;;27.30;17.50;;;;;;;9.35;86.66;99712.81;130386;1262;107715;-82
2024/03/12 13:02:12;;;;;;;29.00;19.20;;;;;;;9.35;86.57;99708.36;130426;1257;107231;-83
2024/03/12 13:05:23;;;;;;;32.80;22.20;;;;;;;9.43;86.72;99709.33;130422;1262;107740;-83
2024/03/12 13:08:29;;;;;;;29.10;20.50;;;;;;;9.50;86.66;99710.52;130428;1273;106921;-83
2024/03/12 13:11:35;;;;;;;30.10;20.80;;;;;;;9.55;86.47;99710.05;130455;1262;107812;-83
2024/03/12 13:14:44;;;;;;;31.60;21.70;;;;;;;9.55;86.52;99709.65;130507;1257;107811;-84
2024/03/12 13:17:51;;;;;;;30.90;21.70;;;;;;;9.54;86.75;99709.24;130493;1263;106403;-83
2024/03/12 13:20:57;;;;;;;32.60;21.70;;;;;;;9.51;86.48;99711.36;130470;1262;107705;-83
2024/03/12 13:24:03;;;;;;;30.70;19.70;;;;;;;9.43;86.43;99713.39;130451;1262;107617;-83
2024/03/12 13:27:09;;;;;;;31.00;21.00;;;;;;;9.40;86.65;99711.95;130394;1261;108659;-81
2024/03/12 13:30:15;;;;;;;32.10;21.20;;;;;;;9.44;86.80;99715.73;130498;1257;108490;-81
2024/03/12 13:33:21;;;;;;;33.00;21.00;;;;;;;9.51;86.88;99716.52;130487;1258;108683;-81
2024/03/12 13:36:27;;;;;;;32.00;21.70;;;;;;;9.52;86.59;99723.98;130413;1260;106779;-82
2024/03/12 13:39:33;;;;;;;32.30;21.40;;;;;;;9.49;87.17;99721.53;130484;1257;107590;-82
2024/03/12 13:42:39;;;;;;;33.50;21.10;;;;;;;9.45;86.86;99723.14;130506;1261;107704;-82
2024/03/12 13:45:46;;;;;;;30.00;19.20;;;;;;;9.39;86.57;99726.24;130438;1256;107684;-83
2024/03/12 13:49:11;;;;;;;30.30;20.10;;;;;;;9.31;86.52;99725.40;130337;1261;106529;-81
2024/03/12 13:52:17;;;;;;;;;;;;;;;9.27;86.72;99726.58;130538;1260;108713;-83
2024/03/12 13:55:23;;;;;;;30.60;21.20;;;;;;;9.27;86.78;99725.21;130343;1257;107854;-83
2024/03/12 13:58:37;;;;;;;29.80;20.50;;;;;;;9.23;86.80;99729.83;130311;1258;106772;-83
2024/03/12 14:01:47;;;;;;;29.80;20.20;;;;;;;9.20;86.72;99730.84;130372;1263;107392;-83
2024/03/12 14:04:54;;;;;;;;;;;;;;;9.16;86.72;99729.18;130424;1265;107498;-82
2024/03/12 14:07:59;;;;;;;31.20;19.90;;;;;;;9.12;86.80;99730.39;130405;1272;108735;-83
2024/03/12 14:11:07;;;;;;;34.10;20.40;;;;;;;9.07;86.89;99732.15;130391;1267;107175;-83
2024/03/12 14:14:13;;;;;;;25.40;16.70;;;;;;;9.02;86.86;99730.35;130234;1258;107549;-83
2024/03/12 14:17:19;;;;;;;32.10;20.90;;;;;;;9.01;86.88;99731.20;130654;1259;106570;-83